Bayview, Texas
Current Conditions -  °F | °C
As of 9:53 AM on Thursday 23 Oct 2014 (Local Time) from KPIL Reporting Station
Clear Clear  
Wind Chill: 79°   Ceiling: Unl
Heat Index: 82°   Visibility: 7mi
Dew Point: 69°   Wind: 5mph
Humidity: 72%   Direction: 350°N
Pressure: 30.07"   Gusts: NA
Location:  26.1063°N, 97.4763°W
Report Text: KPIL 231453Z AUTO 35004KT 7SM CLR 26/21 A3007 RMK AO2 SLP182 T02610206 53022
Loading
Personal Weather Stations






























Interactive Weather Map
Tropical Storm Tracking
New forecast layout! Learn more

10-Day Weather Forecast

Advertisements
Track Severe Weather on mobile